Terminal Aerodrome Forecast
Issued by NWS Twin Cities, MN

Home | Current Version | Previous Version | Graphics & Text | Print | Product List | Glossary On
Versions: 1 2 3 4 5 6 7 8 9 10 11 12 13 14 15 16 17 18 19 20 21 22 23 24 25
718
FTUS43 KMPX 202324
TAFMSP
TAF
KMSP 202324Z 2100/2206 31009G17KT P6SM VCSH SCT025 OVC050
     FM210200 31010KT P6SM SCT025 BKN050
     FM210600 30007KT P6SM FEW050 SCT250
     FM211200 29008KT P6SM FEW250
     FM220200 19004KT P6SM FEW250=

USA.gov is the U.S. government's official web portal to all federal, state and local government web resources and services.